createdAt,value
2022-09-06T00:00:10.007Z,102518.44
2022-09-06T00:01:17.311Z,102522.72
2022-09-06T00:02:19.353Z,102524.56
2022-09-06T00:03:21.255Z,102528.41
2022-09-06T00:04:23.178Z,102525.72
2022-09-06T00:05:24.959Z,102525.72
2022-09-06T00:06:26.806Z,102518.59
2022-09-06T00:07:28.798Z,102519.59
2022-09-06T00:08:30.507Z,102515.91
2022-09-06T00:09:32.283Z,102495.69
2022-09-06T00:10:34.530Z,102512.50
2022-09-06T00:11:36.892Z,102506.78
2022-09-06T00:12:38.746Z,102497.69
2022-09-06T00:13:40.743Z,102517.03
2022-09-06T00:14:42.615Z,102514.31
2022-09-06T00:15:44.396Z,102516.19
2022-09-06T00:16:46.931Z,102504.50
2022-09-06T00:17:49.103Z,102503.69
2022-09-06T00:18:54.994Z,102503.69
2022-09-06T00:19:56.834Z,102510.78
2022-09-06T00:20:58.599Z,102503.69
2022-09-06T00:22:00.409Z,102491.59
2022-09-06T00:23:05.028Z,102500.22
2022-09-06T00:24:06.931Z,102510.03
2022-09-06T00:25:09.467Z,102501.94
2022-09-06T00:27:13.066Z,102504.09
2022-09-06T00:28:16.199Z,102501.38
2022-09-06T00:29:17.985Z,102507.63
2022-09-06T00:30:19.706Z,102503.22
2022-09-06T00:31:24.310Z,102508.63
2022-09-06T00:32:26.609Z,102501.22
2022-09-06T00:33:28.444Z,102499.53
2022-09-06T00:34:30.293Z,102488.56
2022-09-06T00:35:32.259Z,102494.28
2022-09-06T00:36:34.094Z,102496.09
2022-09-06T00:37:35.862Z,102496.09
2022-09-06T00:38:38.917Z,102493.41
2022-09-06T00:39:40.688Z,102497.97
2022-09-06T00:40:42.606Z,102494.41
2022-09-06T00:41:44.595Z,102487.75
2022-09-06T00:42:46.339Z,102492.00
2022-09-06T00:43:48.170Z,102499.81
2022-09-06T00:44:50.601Z,102476.34
2022-09-06T00:45:53.906Z,102489.16
2022-09-06T00:46:56.048Z,102490.00
2022-09-06T00:47:59.850Z,102471.25
2022-09-06T00:49:15.978Z,102479.06
2022-09-06T00:50:19.251Z,102488.00
2022-09-06T00:51:23.209Z,102459.31
2022-09-06T00:52:27.458Z,102475.25
2022-09-06T00:53:31.037Z,102482.91
2022-09-06T00:54:33.215Z,102461.84
2022-09-06T00:55:35.119Z,102470.25
2022-09-06T00:56:41.154Z,102483.19
2022-09-06T00:57:43.522Z,102474.66
2022-09-06T00:58:46.030Z,102483.19
2022-09-06T00:59:49.008Z,102481.47
2022-09-06T01:00:50.966Z,102463.44
2022-09-06T01:01:53.379Z,102486.88
2022-09-06T01:02:55.278Z,102482.47
2022-09-06T01:03:57.357Z,102475.22
2022-09-06T01:04:59.502Z,102480.75
2022-09-06T01:06:16.205Z,102478.06
2022-09-06T01:07:23.879Z,102477.78
2022-09-06T01:08:38.620Z,102483.19
2022-09-06T01:10:08.755Z,102482.91
2022-09-06T01:11:34.114Z,102482.63
2022-09-06T01:13:08.892Z,102481.50
2022-09-06T01:14:44.724Z,102479.38
2022-09-06T01:16:03.241Z,102485.03
2022-09-06T01:17:43.437Z,102473.97
2022-09-06T01:19:26.302Z,102482.34
2022-09-06T01:20:41.970Z,102474.09
2022-09-06T01:22:09.552Z,102469.00
2022-09-06T01:23:52.739Z,102483.19
2022-09-06T01:25:12.951Z,102478.91
2022-09-06T01:26:59.342Z,102477.94
2022-09-06T01:28:36.120Z,102470.69
2022-09-06T01:29:43.543Z,102477.22
2022-09-06T01:30:53.930Z,102475.06
2022-09-06T01:33:17.375Z,102485.72
2022-09-06T01:34:28.962Z,102480.34
2022-09-06T01:35:40.406Z,102475.81
2022-09-06T01:37:10.241Z,102474.94
2022-09-06T01:38:13.309Z,102476.63
2022-09-06T01:39:25.380Z,102478.63
2022-09-06T01:40:28.250Z,102482.31
2022-09-06T01:41:30.882Z,102475.50
2022-09-06T01:42:34.739Z,102477.47
2022-09-06T01:43:40.674Z,102475.78
2022-09-06T01:44:53.998Z,102474.63
2022-09-06T01:46:17.798Z,102474.22
2022-09-06T01:47:35.598Z,102473.50
2022-09-06T01:48:50.841Z,102476.91
2022-09-06T01:50:23.222Z,102478.63
2022-09-06T01:53:03.159Z,102476.91
2022-09-06T01:54:29.423Z,102467.56
2022-09-06T01:55:46.475Z,102468.69
2022-09-06T01:57:04.121Z,102468.81
2022-09-06T01:58:27.492Z,102466.41
2022-09-06T01:59:49.519Z,102454.22
2022-09-06T02:01:04.066Z,102461.72
2022-09-06T02:02:13.193Z,102455.59
2022-09-06T02:03:32.927Z,102458.31
2022-09-06T02:04:44.978Z,102452.19
2022-09-06T02:05:53.381Z,102450.75
2022-09-06T02:07:07.911Z,102458.72
2022-09-06T02:08:39.292Z,102453.63
2022-09-06T02:09:45.303Z,102453.03
2022-09-06T02:11:07.588Z,102444.31
2022-09-06T02:12:13.789Z,102458.25
2022-09-06T02:13:18.311Z,102453.84
2022-09-06T02:14:30.416Z,102448.19
2022-09-06T02:15:39.520Z,102452.00
2022-09-06T02:16:45.008Z,102455.56
2022-09-06T02:17:57.251Z,102448.00
2022-09-06T02:19:06.019Z,102456.41
2022-09-06T02:20:18.971Z,102444.19
2022-09-06T02:21:26.948Z,102445.47
2022-09-06T02:22:34.210Z,102449.31
2022-09-06T02:23:40.452Z,102434.50
2022-09-06T02:24:44.797Z,102453.00
2022-09-06T02:26:05.202Z,102443.22
2022-09-06T02:27:07.930Z,102454.72
2022-09-06T02:28:10.904Z,102453.00
2022-09-06T02:29:13.728Z,102451.59
2022-09-06T02:30:15.900Z,102449.72
2022-09-06T02:31:41.695Z,102436.38
2022-09-06T02:32:54.100Z,102443.22
2022-09-06T02:33:56.766Z,102444.91
2022-09-06T02:34:58.799Z,102433.94
2022-09-06T02:36:06.458Z,102440.06
2022-09-06T02:37:08.667Z,102434.81
2022-09-06T02:38:10.823Z,102432.81
2022-09-06T02:39:13.140Z,102438.22
2022-09-06T02:40:14.970Z,102437.38
2022-09-06T02:41:22.676Z,102435.66
2022-09-06T02:42:25.123Z,102432.22
2022-09-06T02:43:27.210Z,102432.22
2022-09-06T02:44:28.997Z,102430.81
2022-09-06T02:45:30.908Z,102430.53
2022-09-06T02:46:32.662Z,102430.69
2022-09-06T02:47:34.701Z,102422.88
2022-09-06T02:48:36.585Z,102445.59
2022-09-06T02:49:38.456Z,102434.94
2022-09-06T02:50:40.278Z,102430.41
2022-09-06T02:51:42.098Z,102433.09
2022-09-06T02:52:43.867Z,102427.69
2022-09-06T02:53:45.757Z,102422.59
2022-09-06T02:54:47.473Z,102424.28
2022-09-06T02:55:49.215Z,102416.03
2022-09-06T02:56:52.481Z,102417.31
2022-09-06T02:57:54.418Z,102416.03
2022-09-06T02:58:56.124Z,102408.50
2022-09-06T02:59:57.858Z,102417.47
2022-09-06T03:00:59.737Z,102426.84
2022-09-06T03:02:01.576Z,102416.19
2022-09-06T03:03:03.798Z,102414.34
2022-09-06T03:04:05.674Z,102414.34
2022-09-06T03:05:07.710Z,102409.22
2022-09-06T03:06:09.552Z,102410.81
2022-09-06T03:07:11.357Z,102392.47
2022-09-06T03:08:13.094Z,102403.53
2022-09-06T03:09:14.877Z,102406.25
2022-09-06T03:10:17.355Z,102406.41
2022-09-06T03:11:19.104Z,102400.41
2022-09-06T03:12:20.854Z,102372.28
2022-09-06T03:13:24.485Z,102401.00
2022-09-06T03:14:26.228Z,102398.44
2022-09-06T03:15:27.979Z,102401.84
2022-09-06T03:16:29.907Z,102391.63
2022-09-06T03:17:31.764Z,102399.31
2022-09-06T03:18:33.546Z,102389.63
2022-09-06T03:19:35.349Z,102390.50
2022-09-06T03:20:37.418Z,102403.00
2022-09-06T03:21:39.292Z,102398.44
2022-09-06T03:22:41.840Z,102391.22
2022-09-06T03:23:43.616Z,102388.50
2022-09-06T03:24:45.331Z,102376.84
2022-09-06T03:25:47.122Z,102392.91
2022-09-06T03:26:48.858Z,102383.53
2022-09-06T03:27:50.571Z,102379.53
2022-09-06T03:28:52.282Z,102391.34
2022-09-06T03:29:54.014Z,102382.25
2022-09-06T03:30:55.929Z,102392.19
2022-09-06T03:31:57.957Z,102378.00
2022-09-06T03:33:02.588Z,102385.94
2022-09-06T03:34:09.068Z,102393.91
2022-09-06T03:35:12.665Z,102384.81
2022-09-06T03:36:15.774Z,102388.50
2022-09-06T03:37:19.466Z,102384.09
2022-09-06T03:38:22.180Z,102386.81
2022-09-06T03:39:24.082Z,102373.00
2022-09-06T03:40:26.006Z,102381.53
2022-09-06T03:41:27.706Z,102389.63
2022-09-06T03:42:29.760Z,102381.53
2022-09-06T03:43:32.291Z,102366.91
2022-09-06T03:44:34.176Z,102377.41
2022-09-06T03:45:35.954Z,102367.78
2022-09-06T03:46:37.888Z,102382.53
2022-09-06T03:47:39.788Z,102362.66
2022-09-06T03:48:41.537Z,102379.13
2022-09-06T03:49:43.287Z,102375.72
2022-09-06T03:50:46.793Z,102379.13
2022-09-06T03:51:48.582Z,102365.19
2022-09-06T03:52:50.439Z,102345.88
2022-09-06T03:53:52.247Z,102368.88
2022-09-06T03:54:53.954Z,102373.72
2022-09-06T03:55:58.178Z,102372.03
2022-09-06T03:56:59.926Z,102369.19
2022-09-06T03:58:01.659Z,102356.41
2022-09-06T03:59:03.571Z,102363.66
2022-09-06T04:00:05.743Z,102364.78
2022-09-06T04:01:13.168Z,102371.91
2022-09-06T04:02:15.019Z,102365.63
2022-09-06T04:03:19.511Z,102356.41
2022-09-06T04:04:21.265Z,102356.28
2022-09-06T04:05:23.062Z,102357.38
2022-09-06T04:06:24.770Z,102350.16
2022-09-06T04:07:26.542Z,102364.09
2022-09-06T04:08:28.666Z,102361.78
2022-09-06T04:09:30.438Z,102367.63
2022-09-06T04:10:33.013Z,102322.03
2022-09-06T04:11:34.756Z,102354.56
2022-09-06T04:12:36.651Z,102347.31
2022-09-06T04:13:38.811Z,102341.38
2022-09-06T04:14:40.652Z,102365.06
2022-09-06T04:15:46.303Z,102351.72
2022-09-06T04:16:48.120Z,102349.72
2022-09-06T04:17:50.026Z,102351.72
2022-09-06T04:18:52.007Z,102342.19
2022-09-06T04:19:53.704Z,102341.63
2022-09-06T04:20:56.611Z,102353.56
2022-09-06T04:21:58.327Z,102337.09
2022-09-06T04:23:00.177Z,102319.34
2022-09-06T04:24:02.090Z,102335.38
2022-09-06T04:25:04.526Z,102347.47
2022-09-06T04:26:06.465Z,102330.97
2022-09-06T04:27:08.328Z,102333.69
2022-09-06T04:28:10.050Z,102344.78
2022-09-06T04:29:11.867Z,102335.66
2022-09-06T04:30:13.637Z,102352.00
2022-09-06T04:31:15.376Z,102339.50
2022-09-06T04:32:17.242Z,102343.91
2022-09-06T04:33:18.966Z,102344.19
2022-09-06T04:34:20.783Z,102335.66
2022-09-06T04:35:22.832Z,102338.91
2022-09-06T04:36:24.548Z,102337.22
2022-09-06T04:37:26.395Z,102345.88
2022-09-06T04:38:29.845Z,102337.94
2022-09-06T04:39:31.670Z,102328.56
2022-09-06T04:40:33.531Z,102337.69
2022-09-06T04:41:35.465Z,102336.94
2022-09-06T04:42:37.179Z,102340.63
2022-09-06T04:43:39.206Z,102339.50
2022-09-06T04:44:41.562Z,102346.88
2022-09-06T04:45:44.711Z,102314.94
2022-09-06T04:46:46.478Z,102353.97
2022-09-06T04:47:48.214Z,102336.66
2022-09-06T04:48:50.049Z,102351.28
2022-09-06T04:49:52.152Z,102351.56
2022-09-06T04:50:53.983Z,102351.56
2022-09-06T04:51:55.862Z,102352.41
2022-09-06T04:52:57.569Z,102355.81
2022-09-06T04:53:59.283Z,102354.97
2022-09-06T04:55:01.007Z,102354.09
2022-09-06T04:56:03.034Z,102354.09
2022-09-06T04:57:05.052Z,102346.88
2022-09-06T04:58:06.847Z,102353.28
2022-09-06T04:59:08.599Z,102345.59
2022-09-06T05:00:10.700Z,102344.75
2022-09-06T05:01:12.809Z,102342.47
2022-09-06T05:02:14.619Z,102349.69
2022-09-06T05:03:16.372Z,102349.69
2022-09-06T05:04:18.087Z,102341.91
2022-09-06T05:05:20.103Z,102347.16
2022-09-06T05:06:24.570Z,102346.16
2022-09-06T05:07:26.383Z,102345.19
2022-09-06T05:08:28.296Z,102330.97
2022-09-06T05:09:30.203Z,102331.38
2022-09-06T05:10:31.966Z,102337.94
2022-09-06T05:11:34.096Z,102327.84
2022-09-06T05:12:35.923Z,102341.09
2022-09-06T05:13:38.124Z,102334.81
2022-09-06T05:14:39.970Z,102333.53
2022-09-06T05:15:41.711Z,102320.34
2022-09-06T05:16:45.492Z,102325.16
2022-09-06T05:17:47.496Z,102324.88
2022-09-06T05:18:49.272Z,102326.59
2022-09-06T05:19:51.014Z,102329.44
2022-09-06T05:20:53.643Z,102330.88
2022-09-06T05:21:55.409Z,102329.59
2022-09-06T05:22:57.368Z,102326.59
2022-09-06T05:23:59.144Z,102327.34
2022-09-06T05:25:00.838Z,102327.78
2022-09-06T05:26:03.752Z,102329.59
2022-09-06T05:27:05.655Z,102308.16
2022-09-06T05:28:07.779Z,102316.56
2022-09-06T05:29:09.563Z,102334.59
2022-09-06T05:30:11.967Z,102326.31
2022-09-06T05:31:25.891Z,102320.34
2022-09-06T05:32:27.725Z,102325.19
2022-09-06T05:33:29.470Z,102321.78
2022-09-06T05:34:31.188Z,102319.78
2022-09-06T05:35:32.986Z,102330.72
2022-09-06T05:36:35.557Z,102322.63
2022-09-06T05:37:37.273Z,102325.56
2022-09-06T05:38:38.978Z,102321.31
2022-09-06T05:39:40.806Z,102316.34
2022-09-06T05:40:42.634Z,102331.13
2022-09-06T05:41:44.474Z,102320.44
2022-09-06T05:42:46.272Z,102308.63
2022-09-06T05:43:48.237Z,102322.25
2022-09-06T05:44:50.159Z,102314.84
2022-09-06T05:45:51.950Z,102319.13
2022-09-06T05:46:53.732Z,102307.44
2022-09-06T05:47:55.591Z,102309.44
2022-09-06T05:49:01.503Z,102309.16
2022-09-06T05:50:03.572Z,102318.97
2022-09-06T05:51:12.740Z,102317.13
2022-09-06T05:52:14.703Z,102310.56
2022-09-06T05:53:16.497Z,102308.03
2022-09-06T05:54:18.272Z,102319.25
2022-09-06T05:55:20.005Z,102311.97
2022-09-06T05:56:22.633Z,102319.63
2022-09-06T05:57:24.508Z,102318.78
2022-09-06T05:58:26.346Z,102312.25
2022-09-06T05:59:28.346Z,102304.25
2022-09-06T06:00:30.075Z,102309.84
2022-09-06T06:01:31.924Z,102308.41
2022-09-06T06:02:33.787Z,102301.81
2022-09-06T06:03:35.658Z,102306.22
2022-09-06T06:04:37.378Z,102307.09
2022-09-06T06:05:39.595Z,102294.72
2022-09-06T06:06:41.342Z,102304.22
2022-09-06T06:07:43.358Z,102300.53
2022-09-06T06:08:45.267Z,102288.31
2022-09-06T06:09:47.011Z,102309.34
2022-09-06T06:10:48.953Z,102299.38
2022-09-06T06:11:50.709Z,102305.94
2022-09-06T06:12:52.427Z,102299.38
2022-09-06T06:13:54.471Z,102300.53
2022-09-06T06:14:56.212Z,102310.91
2022-09-06T06:15:58.425Z,102297.81
2022-09-06T06:17:00.376Z,102299.09
2022-09-06T06:18:02.221Z,102300.22
2022-09-06T06:19:04.087Z,102289.00
2022-09-06T06:20:06.566Z,102298.22
2022-09-06T06:21:16.502Z,102288.00
2022-09-06T06:22:18.399Z,102296.78
2022-09-06T06:23:20.114Z,102300.63
2022-09-06T06:24:22.627Z,102300.47
2022-09-06T06:25:26.314Z,102290.41
2022-09-06T06:26:30.087Z,102298.63
2022-09-06T06:27:34.102Z,102302.19
2022-09-06T06:28:36.892Z,102289.66
2022-09-06T06:29:38.668Z,102286.56
2022-09-06T06:30:40.426Z,102299.31
2022-09-06T06:31:42.219Z,102290.38
2022-09-06T06:32:44.179Z,102302.00
2022-09-06T06:33:46.457Z,102283.09
2022-09-06T06:34:48.422Z,102296.59
2022-09-06T06:36:01.475Z,102286.66
2022-09-06T06:37:03.334Z,102288.22
2022-09-06T06:38:05.102Z,102281.00
2022-09-06T06:39:08.670Z,102291.94
2022-09-06T06:40:10.729Z,102281.88
2022-09-06T06:41:15.639Z,102290.50
2022-09-06T06:42:17.362Z,102298.47
2022-09-06T06:43:27.668Z,102278.00
2022-09-06T06:44:29.374Z,102286.53
2022-09-06T06:45:31.755Z,102283.69
2022-09-06T06:46:36.304Z,102261.44
2022-09-06T06:47:38.059Z,102295.34
2022-09-06T06:48:41.424Z,102293.63
2022-09-06T06:49:43.220Z,102284.25
2022-09-06T06:50:45.016Z,102291.75
2022-09-06T06:51:47.091Z,102299.88
2022-09-06T06:52:48.899Z,102288.50
2022-09-06T06:53:51.616Z,102279.69
2022-09-06T06:54:53.338Z,102292.78
2022-09-06T06:55:55.409Z,102288.38
2022-09-06T06:56:57.150Z,102284.97
2022-09-06T06:58:02.144Z,102285.09
2022-09-06T06:59:05.967Z,102294.34
2022-09-06T07:00:08.428Z,102291.63
2022-09-06T07:01:10.724Z,102292.19
2022-09-06T07:02:15.778Z,102294.34
2022-09-06T07:03:18.405Z,102293.34
2022-09-06T07:04:20.132Z,102294.16
2022-09-06T07:08:14.174Z,102291.84
2022-09-06T07:09:18.382Z,102298.97
2022-09-06T07:10:35.603Z,102288.63
2022-09-06T07:11:38.180Z,102287.63
2022-09-06T07:12:40.015Z,102291.31
2022-09-06T07:13:42.278Z,102297.44
2022-09-06T07:14:44.029Z,102289.75
2022-09-06T07:15:45.878Z,102295.03
2022-09-06T07:16:47.778Z,102297.56
2022-09-06T07:17:49.621Z,102297.72
2022-09-06T07:18:52.775Z,102299.44
2022-09-06T07:22:40.591Z,102294.81
2022-09-06T07:25:06.281Z,102295.66
2022-09-06T07:26:08.830Z,102285.31
2022-09-06T07:28:32.359Z,102279.59
2022-09-06T07:29:34.960Z,102286.00
2022-09-06T07:30:37.495Z,102276.50
2022-09-06T07:33:01.065Z,102272.78
2022-09-06T07:34:05.165Z,102268.38
2022-09-06T07:35:07.456Z,102272.47
2022-09-06T07:36:09.407Z,102271.78
2022-09-06T07:37:11.139Z,102277.91
2022-09-06T07:38:12.863Z,102273.50
2022-09-06T07:39:14.624Z,102270.63
2022-09-06T07:40:16.375Z,102264.97
2022-09-06T07:41:19.291Z,102275.19
2022-09-06T07:42:21.209Z,102272.47
2022-09-06T07:43:23.283Z,102257.00
2022-09-06T07:44:24.999Z,102255.00
2022-09-06T07:45:27.059Z,102271.47
2022-09-06T07:46:28.868Z,102265.91
2022-09-06T07:48:52.342Z,102271.72
2022-09-06T07:51:21.311Z,102273.25
2022-09-06T07:53:57.929Z,102264.16
2022-09-06T07:55:09.187Z,102271.66
2022-09-06T07:56:12.639Z,102266.75
2022-09-06T07:57:14.564Z,102261.34
2022-09-06T07:58:16.352Z,102257.91
2022-09-06T07:59:18.315Z,102244.81
2022-09-06T08:00:20.062Z,102252.94
2022-09-06T08:01:38.456Z,102253.22
2022-09-06T08:02:41.045Z,102256.63
2022-09-06T08:03:43.527Z,102237.72
2022-09-06T08:04:49.748Z,102248.78
2022-09-06T08:06:09.085Z,102255.94
2022-09-06T08:09:54.930Z,102256.84
2022-09-06T08:10:56.657Z,102256.13
2022-09-06T08:11:58.914Z,102248.50
2022-09-06T08:13:00.651Z,102256.44
2022-09-06T08:14:04.987Z,102257.31
2022-09-06T08:15:07.381Z,102253.06
2022-09-06T08:16:11.435Z,102261.84
2022-09-06T08:17:13.307Z,102260.84
2022-09-06T08:18:15.034Z,102253.22
2022-09-06T08:19:18.413Z,102250.03
2022-09-06T08:20:20.285Z,102249.34
2022-09-06T08:21:23.868Z,102253.59
2022-09-06T08:22:25.595Z,102250.72
2022-09-06T08:23:27.815Z,102242.94
2022-09-06T08:24:29.582Z,102242.63
2022-09-06T08:25:31.295Z,102245.31
2022-09-06T08:26:35.034Z,102239.91
2022-09-06T08:27:36.883Z,102234.50
2022-09-06T08:28:38.704Z,102225.00
2022-09-06T08:29:40.435Z,102226.69
2022-09-06T08:30:42.227Z,102233.34
2022-09-06T08:31:45.280Z,102227.09
2022-09-06T08:32:47.130Z,102229.66
2022-09-06T08:33:49.026Z,102232.34
2022-09-06T08:34:50.862Z,102224.22
2022-09-06T08:35:56.691Z,102223.38
2022-09-06T08:36:58.449Z,102220.84
2022-09-06T08:38:00.190Z,102215.94
2022-09-06T08:39:04.683Z,102214.25
2022-09-06T08:40:06.974Z,102213.41
2022-09-06T08:41:51.546Z,102205.22
2022-09-06T08:42:53.346Z,102209.13
2022-09-06T08:45:23.297Z,102184.34
2022-09-06T08:46:34.114Z,102201.34
2022-09-06T08:47:36.075Z,102203.22
2022-09-06T08:48:39.981Z,102196.25
2022-09-06T08:49:46.767Z,102202.53
2022-09-06T08:51:07.743Z,102186.06
2022-09-06T08:52:34.319Z,102196.47
2022-09-06T08:53:41.999Z,102199.88
2022-09-06T08:55:11.199Z,102186.28
2022-09-06T08:56:23.299Z,102182.25
2022-09-06T08:57:40.503Z,102195.31
2022-09-06T08:59:05.648Z,102193.97
2022-09-06T09:00:13.359Z,102187.88
2022-09-06T09:01:19.614Z,102186.81
2022-09-06T09:02:22.624Z,102195.47
2022-09-06T09:03:39.372Z,102195.63
2022-09-06T09:05:04.419Z,102191.44
2022-09-06T09:06:10.208Z,102171.13
2022-09-06T09:07:43.871Z,102182.31
2022-09-06T09:09:15.110Z,102187.78
2022-09-06T09:10:26.863Z,102188.41
2022-09-06T09:11:29.970Z,102180.75
2022-09-06T09:12:36.907Z,102176.84
2022-09-06T09:13:54.666Z,102183.31
2022-09-06T09:15:06.079Z,102182.78
2022-09-06T09:16:08.129Z,102178.53
2022-09-06T09:17:20.379Z,102174.28
2022-09-06T09:18:34.969Z,102182.47
2022-09-06T09:19:42.366Z,102181.63
2022-09-06T09:20:44.258Z,102180.06
2022-09-06T09:21:49.258Z,102180.94
2022-09-06T09:22:51.067Z,102172.75
2022-09-06T09:23:58.955Z,102185.97
2022-09-06T09:25:02.433Z,102180.56
2022-09-06T09:26:15.522Z,102165.25
2022-09-06T09:27:22.247Z,102172.28
2022-09-06T09:28:24.762Z,102176.53
2022-09-06T09:29:29.459Z,102177.91
2022-09-06T09:31:07.152Z,102186.09
2022-09-06T09:32:09.263Z,102169.78
2022-09-06T09:33:32.783Z,102186.09
2022-09-06T09:34:37.807Z,102176.28
2022-09-06T09:35:42.492Z,102167.41
2022-09-06T09:38:23.143Z,102165.91
2022-09-06T09:39:35.927Z,102162.19
2022-09-06T09:40:42.804Z,102173.88
2022-09-06T09:41:50.833Z,102171.88
2022-09-06T09:42:55.182Z,102153.50
2022-09-06T09:44:16.327Z,102170.00
2022-09-06T09:45:20.979Z,102170.72
2022-09-06T09:46:22.794Z,102181.53
2022-09-06T09:47:34.258Z,102178.13
2022-09-06T09:48:36.453Z,102176.97
2022-09-06T09:49:38.179Z,102166.91
2022-09-06T09:50:39.937Z,102167.09
2022-09-06T09:51:45.339Z,102176.59
2022-09-06T09:52:47.050Z,102178.97
2022-09-06T09:54:10.803Z,102174.13
2022-09-06T09:55:12.585Z,102176.66
2022-09-06T09:56:15.539Z,102181.38
2022-09-06T09:57:18.804Z,102179.66
2022-09-06T09:58:33.591Z,102169.31
2022-09-06T09:59:43.864Z,102165.00
2022-09-06T10:00:45.706Z,102172.25
2022-09-06T10:01:47.619Z,102160.19
2022-09-06T10:02:49.556Z,102163.06
2022-09-06T10:05:15.982Z,102179.03
2022-09-06T10:07:52.861Z,102167.88
2022-09-06T10:08:55.350Z,102159.41
2022-09-06T10:10:06.119Z,102171.91
2022-09-06T10:11:13.007Z,102170.91
2022-09-06T10:12:32.959Z,102167.19
2022-09-06T10:13:34.698Z,102157.56
2022-09-06T10:14:48.874Z,102162.41
2022-09-06T10:15:51.996Z,102155.00
2022-09-06T10:16:54.362Z,102158.03
2022-09-06T10:17:56.134Z,102160.25
2022-09-06T10:18:57.990Z,102151.91
2022-09-06T10:20:11.728Z,102163.97
2022-09-06T10:21:22.493Z,102156.38
2022-09-06T10:22:27.382Z,102162.47
2022-09-06T10:25:38.631Z,102156.81
2022-09-06T10:26:51.590Z,102157.44
2022-09-06T10:28:14.222Z,102154.72
2022-09-06T10:29:27.092Z,102152.34
2022-09-06T10:30:30.619Z,102150.63
2022-09-06T10:31:43.496Z,102165.72
2022-09-06T10:33:11.605Z,102165.72
2022-09-06T10:34:16.845Z,102159.13
2022-09-06T10:35:23.950Z,102159.44
2022-09-06T10:36:37.143Z,102161.16
2022-09-06T10:37:57.431Z,102157.09
2022-09-06T10:39:04.367Z,102153.72
2022-09-06T10:40:09.975Z,102161.00
2022-09-06T10:41:11.723Z,102153.88
2022-09-06T10:42:13.405Z,102161.16
2022-09-06T10:43:19.243Z,102155.03
2022-09-06T10:44:54.791Z,102156.28
2022-09-06T10:46:11.689Z,102152.22
2022-09-06T10:47:16.890Z,102154.25
2022-09-06T10:48:31.344Z,102163.94
2022-09-06T10:49:35.205Z,102168.47
2022-09-06T10:50:39.555Z,102132.66
2022-09-06T10:51:57.174Z,102163.22
2022-09-06T10:53:09.070Z,102157.78
2022-09-06T10:54:13.382Z,102168.34
2022-09-06T10:55:19.540Z,102160.50
2022-09-06T10:56:38.922Z,102157.78
2022-09-06T10:59:40.372Z,102162.66
2022-09-06T11:00:49.249Z,102166.38
2022-09-06T11:02:00.047Z,102164.69
2022-09-06T11:06:11.357Z,102156.06
2022-09-06T11:07:30.131Z,102165.19
2022-09-06T11:09:08.335Z,102146.19
2022-09-06T11:10:30.418Z,102148.63
2022-09-06T11:11:40.608Z,102156.94
2022-09-06T11:13:01.274Z,102156.94
2022-09-06T11:14:12.880Z,102157.09
2022-09-06T11:15:15.641Z,102155.38
2022-09-06T11:16:27.238Z,102155.72
2022-09-06T11:17:38.547Z,102158.41
2022-09-06T11:18:51.447Z,102148.88
2022-09-06T11:20:11.603Z,102154.56
2022-09-06T11:21:17.479Z,102151.66
2022-09-06T11:22:50.294Z,102149.50
2022-09-06T11:23:57.324Z,102142.38
2022-09-06T11:24:59.019Z,102149.81
2022-09-06T11:26:41.699Z,102147.13
2022-09-06T11:27:47.892Z,102146.09
2022-09-06T11:28:55.969Z,102145.41
2022-09-06T11:30:01.766Z,102151.66
2022-09-06T11:31:05.773Z,102138.94
2022-09-06T11:32:35.612Z,102147.81
2022-09-06T11:33:40.023Z,102141.84
2022-09-06T11:34:53.735Z,102136.75
2022-09-06T11:36:20.257Z,102143.75
2022-09-06T11:37:28.508Z,102144.91
2022-09-06T11:38:31.007Z,102132.88
2022-09-06T11:41:02.687Z,102134.94
2022-09-06T11:42:09.555Z,102132.19
2022-09-06T11:43:15.405Z,102140.69
2022-09-06T11:44:54.231Z,102138.50
2022-09-06T11:45:56.158Z,102137.34
2022-09-06T11:46:59.074Z,102121.88
2022-09-06T11:48:23.622Z,102136.50
2022-09-06T11:49:33.481Z,102123.56
2022-09-06T11:50:58.696Z,102131.59
2022-09-06T11:52:01.239Z,102138.00
2022-09-06T11:53:18.357Z,102133.59
2022-09-06T11:54:23.003Z,102131.09
2022-09-06T11:55:36.403Z,102086.72
2022-09-06T11:56:50.699Z,102125.28
2022-09-06T11:57:58.172Z,102128.38
2022-09-06T11:59:22.357Z,102129.34
2022-09-06T12:00:25.067Z,102130.75
2022-09-06T12:01:34.630Z,102128.19
2022-09-06T12:02:41.522Z,102128.66
2022-09-06T12:05:07.659Z,102133.97
2022-09-06T12:06:21.415Z,102125.16
2022-09-06T12:07:23.284Z,102123.78
2022-09-06T12:08:33.597Z,102113.06
2022-09-06T12:09:38.211Z,102128.19
2022-09-06T12:10:40.019Z,102131.78
2022-09-06T12:11:45.066Z,102130.22
2022-09-06T12:12:50.025Z,102132.94
2022-09-06T12:13:56.702Z,102127.84
2022-09-06T12:14:58.615Z,102127.19
2022-09-06T12:16:01.082Z,102132.78
2022-09-06T12:17:05.295Z,102128.19
2022-09-06T12:18:07.088Z,102128.19
2022-09-06T12:19:08.858Z,102117.69
2022-09-06T12:20:11.334Z,102129.88
2022-09-06T12:21:40.744Z,102126.53
2022-09-06T12:22:42.618Z,102123.66
2022-09-06T12:23:44.614Z,102125.84
2022-09-06T12:24:46.431Z,102124.16
2022-09-06T12:25:53.130Z,102122.44
2022-09-06T12:27:15.878Z,102119.41
2022-09-06T12:28:26.692Z,102120.44
2022-09-06T12:29:29.103Z,102124.50
2022-09-06T12:30:37.201Z,102122.13
2022-09-06T12:31:42.498Z,102119.41
2022-09-06T12:32:49.707Z,102125.69
2022-09-06T12:33:52.758Z,102115.69
2022-09-06T12:36:24.237Z,102118.25
2022-09-06T12:37:37.304Z,102123.34
2022-09-06T12:38:39.116Z,102117.75
2022-09-06T12:39:57.615Z,102117.94
2022-09-06T12:41:01.245Z,102099.78
2022-09-06T12:42:07.366Z,102109.94
2022-09-06T12:43:10.910Z,102113.84
2022-09-06T12:44:14.819Z,102123.50
2022-09-06T12:45:19.176Z,102123.66
2022-09-06T12:46:21.041Z,102120.78
2022-09-06T12:47:29.183Z,102121.44
2022-09-06T12:48:39.195Z,102127.22
2022-09-06T12:49:41.463Z,102122.47
2022-09-06T12:50:43.482Z,102104.16
2022-09-06T12:51:45.628Z,102121.28
2022-09-06T12:52:59.372Z,102113.16
2022-09-06T12:54:05.638Z,102116.72
2022-09-06T12:55:35.239Z,102119.41
2022-09-06T12:56:37.347Z,102132.66
2022-09-06T12:57:47.581Z,102124.88
2022-09-06T12:58:49.442Z,102118.25
2022-09-06T12:59:54.103Z,102126.88
2022-09-06T13:01:03.767Z,102126.88
2022-09-06T13:02:11.956Z,102128.75
2022-09-06T13:03:32.209Z,102129.28
2022-09-06T13:05:02.755Z,102130.34
2022-09-06T13:06:06.496Z,102132.03
2022-09-06T13:07:15.551Z,102131.50
2022-09-06T13:08:26.527Z,102114.34
2022-09-06T13:09:30.024Z,102128.25
2022-09-06T13:10:32.279Z,102123.16
2022-09-06T13:11:38.588Z,102123.16
2022-09-06T13:12:44.157Z,102119.09
2022-09-06T13:13:49.054Z,102131.81